sensor_id;sensor_type;location;lat;lon;timestamp;P1;durP1;ratioP1;P2;durP2;ratioP2
6860;SDS011;3469;47.060;15.460;2023-04-01T00:02:10;3.13;;;2.50;;
6860;SDS011;3469;47.060;15.460;2023-04-01T00:04:39;3.60;;;2.93;;
6860;SDS011;3469;47.060;15.460;2023-04-01T00:07:09;3.10;;;2.43;;
6860;SDS011;3469;47.060;15.460;2023-04-01T00:09:38;3.60;;;2.23;;
6860;SDS011;3469;47.060;15.460;2023-04-01T00:12:06;2.80;;;2.33;;
6860;SDS011;3469;47.060;15.460;2023-04-01T00:14:34;3.67;;;2.77;;
6860;SDS011;3469;47.060;15.460;2023-04-01T00:17:03;2.40;;;1.90;;
6860;SDS011;3469;47.060;15.460;2023-04-01T00:19:32;2.40;;;2.20;;
6860;SDS011;3469;47.060;15.460;2023-04-01T00:22:00;3.13;;;2.27;;
6860;SDS011;3469;47.060;15.460;2023-04-01T00:24:30;3.17;;;1.80;;
6860;SDS011;3469;47.060;15.460;2023-04-01T00:26:59;3.17;;;2.10;;
6860;SDS011;3469;47.060;15.460;2023-04-01T00:29:28;2.73;;;2.30;;
6860;SDS011;3469;47.060;15.460;2023-04-01T00:31:57;3.87;;;2.30;;
6860;SDS011;3469;47.060;15.460;2023-04-01T00:34:25;3.63;;;2.30;;
6860;SDS011;3469;47.060;15.460;2023-04-01T00:36:54;3.43;;;2.27;;
6860;SDS011;3469;47.060;15.460;2023-04-01T00:39:22;1.90;;;1.53;;
6860;SDS011;3469;47.060;15.460;2023-04-01T00:41:52;2.60;;;2.17;;
6860;SDS011;3469;47.060;15.460;2023-04-01T00:44:21;1.67;;;1.07;;
6860;SDS011;3469;47.060;15.460;2023-04-01T00:46:51;5.70;;;3.23;;
6860;SDS011;3469;47.060;15.460;2023-04-01T00:49:21;4.03;;;2.10;;
6860;SDS011;3469;47.060;15.460;2023-04-01T00:51:52;2.03;;;1.80;;
6860;SDS011;3469;47.060;15.460;2023-04-01T00:54:23;2.57;;;2.07;;
6860;SDS011;3469;47.060;15.460;2023-04-01T00:56:54;2.70;;;2.03;;
6860;SDS011;3469;47.060;15.460;2023-04-01T00:59:25;2.67;;;2.47;;
6860;SDS011;3469;47.060;15.460;2023-04-01T01:01:54;2.77;;;2.57;;
6860;SDS011;3469;47.060;15.460;2023-04-01T01:04:23;2.70;;;1.70;;
6860;SDS011;3469;47.060;15.460;2023-04-01T01:06:56;2.97;;;2.43;;
6860;SDS011;3469;47.060;15.460;2023-04-01T01:09:33;4.07;;;2.37;;
6860;SDS011;3469;47.060;15.460;2023-04-01T01:12:10;0.80;;;0.70;;
6860;SDS011;3469;47.060;15.460;2023-04-01T01:14:44;2.60;;;2.40;;
6860;SDS011;3469;47.060;15.460;2023-04-01T01:17:19;1.87;;;1.70;;
6860;SDS011;3469;47.060;15.460;2023-04-01T01:19:58;1.30;;;0.93;;
6860;SDS011;3469;47.060;15.460;2023-04-01T01:22:52;3.80;;;3.00;;
6860;SDS011;3469;47.060;15.460;2023-04-01T01:25:32;2.77;;;2.57;;
6860;SDS011;3469;47.060;15.460;2023-04-01T01:28:15;2.80;;;1.77;;
6860;SDS011;3469;47.060;15.460;2023-04-01T01:30:57;3.80;;;3.33;;
6860;SDS011;3469;47.060;15.460;2023-04-01T01:33:34;2.50;;;1.90;;
6860;SDS011;3469;47.060;15.460;2023-04-01T01:36:09;2.83;;;2.30;;
6860;SDS011;3469;47.060;15.460;2023-04-01T01:38:41;2.30;;;2.10;;
6860;SDS011;3469;47.060;15.460;2023-04-01T01:41:10;3.40;;;2.70;;
6860;SDS011;3469;47.060;15.460;2023-04-01T01:43:40;2.70;;;1.73;;
6860;SDS011;3469;47.060;15.460;2023-04-01T01:46:12;3.03;;;1.70;;
6860;SDS011;3469;47.060;15.460;2023-04-01T01:48:45;3.17;;;1.43;;
6860;SDS011;3469;47.060;15.460;2023-04-01T01:51:15;3.77;;;2.50;;
6860;SDS011;3469;47.060;15.460;2023-04-01T01:53:44;3.30;;;2.90;;
6860;SDS011;3469;47.060;15.460;2023-04-01T01:56:14;2.60;;;1.63;;
6860;SDS011;3469;47.060;15.460;2023-04-01T01:58:46;2.23;;;1.80;;
6860;SDS011;3469;47.060;15.460;2023-04-01T02:01:19;2.07;;;1.43;;
6860;SDS011;3469;47.060;15.460;2023-04-01T02:03:51;2.60;;;2.17;;
6860;SDS011;3469;47.060;15.460;2023-04-01T02:06:22;2.47;;;2.10;;
6860;SDS011;3469;47.060;15.460;2023-04-01T02:08:53;4.37;;;2.30;;
6860;SDS011;3469;47.060;15.460;2023-04-01T02:11:24;2.57;;;2.20;;
6860;SDS011;3469;47.060;15.460;2023-04-01T02:13:55;2.90;;;2.27;;
6860;SDS011;3469;47.060;15.460;2023-04-01T02:16:28;1.80;;;1.47;;
6860;SDS011;3469;47.060;15.460;2023-04-01T02:19:01;4.57;;;2.57;;
6860;SDS011;3469;47.060;15.460;2023-04-01T02:21:35;1.20;;;1.10;;
6860;SDS011;3469;47.060;15.460;2023-04-01T02:24:06;3.10;;;1.57;;
6860;SDS011;3469;47.060;15.460;2023-04-01T02:26:37;1.50;;;1.10;;
6860;SDS011;3469;47.060;15.460;2023-04-01T02:29:06;2.23;;;1.20;;
6860;SDS011;3469;47.060;15.460;2023-04-01T02:31:35;2.80;;;1.73;;
6860;SDS011;3469;47.060;15.460;2023-04-01T02:34:04;1.23;;;0.90;;
6860;SDS011;3469;47.060;15.460;2023-04-01T02:36:34;3.33;;;2.30;;
6860;SDS011;3469;47.060;15.460;2023-04-01T02:39:04;0.83;;;0.63;;
6860;SDS011;3469;47.060;15.460;2023-04-01T02:41:37;8.13;;;2.07;;
6860;SDS011;3469;47.060;15.460;2023-04-01T02:44:07;2.67;;;2.03;;
6860;SDS011;3469;47.060;15.460;2023-04-01T02:46:36;2.80;;;1.60;;
6860;SDS011;3469;47.060;15.460;2023-04-01T02:49:05;3.23;;;2.30;;
6860;SDS011;3469;47.060;15.460;2023-04-01T02:51:33;2.23;;;1.87;;
6860;SDS011;3469;47.060;15.460;2023-04-01T02:54:04;2.37;;;1.83;;
6860;SDS011;3469;47.060;15.460;2023-04-01T02:56:32;2.80;;;2.40;;
6860;SDS011;3469;47.060;15.460;2023-04-01T02:59:01;3.03;;;1.83;;
6860;SDS011;3469;47.060;15.460;2023-04-01T03:01:29;2.50;;;1.97;;
6860;SDS011;3469;47.060;15.460;2023-04-01T03:03:58;2.50;;;1.70;;
6860;SDS011;3469;47.060;15.460;2023-04-01T03:06:26;4.07;;;2.43;;
6860;SDS011;3469;47.060;15.460;2023-04-01T03:08:54;2.10;;;1.77;;
6860;SDS011;3469;47.060;15.460;2023-04-01T03:11:24;3.10;;;2.00;;
6860;SDS011;3469;47.060;15.460;2023-04-01T03:13:53;2.20;;;2.00;;
6860;SDS011;3469;47.060;15.460;2023-04-01T03:16:22;2.30;;;1.70;;
6860;SDS011;3469;47.060;15.460;2023-04-01T03:18:51;4.20;;;2.40;;
6860;SDS011;3469;47.060;15.460;2023-04-01T03:21:21;2.73;;;2.17;;
6860;SDS011;3469;47.060;15.460;2023-04-01T03:23:51;3.03;;;2.13;;
6860;SDS011;3469;47.060;15.460;2023-04-01T03:26:19;3.07;;;2.07;;
6860;SDS011;3469;47.060;15.460;2023-04-01T03:28:49;3.07;;;2.30;;
6860;SDS011;3469;47.060;15.460;2023-04-01T03:31:18;2.90;;;1.80;;
6860;SDS011;3469;47.060;15.460;2023-04-01T03:33:52;3.53;;;2.07;;
6860;SDS011;3469;47.060;15.460;2023-04-01T03:36:21;3.23;;;2.10;;
6860;SDS011;3469;47.060;15.460;2023-04-01T03:38:50;2.10;;;1.80;;
6860;SDS011;3469;47.060;15.460;2023-04-01T03:41:26;4.47;;;2.67;;
6860;SDS011;3469;47.060;15.460;2023-04-01T03:43:56;3.00;;;2.17;;
6860;SDS011;3469;47.060;15.460;2023-04-01T03:46:25;3.93;;;2.40;;
6860;SDS011;3469;47.060;15.460;2023-04-01T03:48:53;5.60;;;2.83;;
6860;SDS011;3469;47.060;15.460;2023-04-01T03:51:21;4.27;;;2.47;;
6860;SDS011;3469;47.060;15.460;2023-04-01T03:53:50;4.93;;;3.23;;
6860;SDS011;3469;47.060;15.460;2023-04-01T03:56:19;3.53;;;2.93;;
6860;SDS011;3469;47.060;15.460;2023-04-01T03:58:49;8.30;;;4.07;;
6860;SDS011;3469;47.060;15.460;2023-04-01T04:01:20;3.40;;;3.00;;
6860;SDS011;3469;47.060;15.460;2023-04-01T04:03:53;4.73;;;3.67;;
6860;SDS011;3469;47.060;15.460;2023-04-01T04:06:22;4.70;;;4.30;;
6860;SDS011;3469;47.060;15.460;2023-04-01T04:08:52;5.53;;;4.00;;
6860;SDS011;3469;47.060;15.460;2023-04-01T04:11:21;6.33;;;4.27;;
6860;SDS011;3469;47.060;15.460;2023-04-01T04:13:51;4.27;;;3.80;;
6860;SDS011;3469;47.060;15.460;2023-04-01T04:16:23;6.23;;;4.80;;
6860;SDS011;3469;47.060;15.460;2023-04-01T04:18:56;5.17;;;4.67;;
6860;SDS011;3469;47.060;15.460;2023-04-01T04:21:24;7.87;;;4.60;;
6860;SDS011;3469;47.060;15.460;2023-04-01T04:23:53;6.97;;;4.93;;
6860;SDS011;3469;47.060;15.460;2023-04-01T04:26:22;8.30;;;6.17;;
6860;SDS011;3469;47.060;15.460;2023-04-01T04:28:58;5.93;;;4.77;;
6860;SDS011;3469;47.060;15.460;2023-04-01T04:31:29;5.70;;;4.93;;
6860;SDS011;3469;47.060;15.460;2023-04-01T04:33:59;6.07;;;5.40;;
6860;SDS011;3469;47.060;15.460;2023-04-01T04:36:32;6.67;;;5.33;;
6860;SDS011;3469;47.060;15.460;2023-04-01T04:39:05;6.03;;;4.80;;
6860;SDS011;3469;47.060;15.460;2023-04-01T04:41:37;6.17;;;5.10;;
6860;SDS011;3469;47.060;15.460;2023-04-01T04:44:06;6.80;;;5.10;;
6860;SDS011;3469;47.060;15.460;2023-04-01T04:46:36;9.27;;;6.40;;
6860;SDS011;3469;47.060;15.460;2023-04-01T04:49:13;11.03;;;5.43;;
6860;SDS011;3469;47.060;15.460;2023-04-01T04:51:43;8.57;;;5.60;;
6860;SDS011;3469;47.060;15.460;2023-04-01T04:54:16;11.30;;;6.10;;
6860;SDS011;3469;47.060;15.460;2023-04-01T04:56:51;6.23;;;5.63;;
6860;SDS011;3469;47.060;15.460;2023-04-01T04:59:21;5.50;;;5.00;;
6860;SDS011;3469;47.060;15.460;2023-04-01T05:01:59;5.60;;;5.10;;
6860;SDS011;3469;47.060;15.460;2023-04-01T05:04:33;6.37;;;5.57;;
6860;SDS011;3469;47.060;15.460;2023-04-01T05:07:08;9.17;;;5.00;;
6860;SDS011;3469;47.060;15.460;2023-04-01T05:09:38;6.90;;;5.47;;
6860;SDS011;3469;47.060;15.460;2023-04-01T05:12:07;7.80;;;5.63;;
6860;SDS011;3469;47.060;15.460;2023-04-01T05:14:54;6.07;;;4.70;;
6860;SDS011;3469;47.060;15.460;2023-04-01T05:17:24;5.50;;;4.50;;
6860;SDS011;3469;47.060;15.460;2023-04-01T05:19:53;5.50;;;4.33;;
6860;SDS011;3469;47.060;15.460;2023-04-01T05:22:23;5.90;;;4.43;;
6860;SDS011;3469;47.060;15.460;2023-04-01T05:24:56;4.17;;;3.43;;
6860;SDS011;3469;47.060;15.460;2023-04-01T05:27:25;3.80;;;3.33;;
6860;SDS011;3469;47.060;15.460;2023-04-01T05:29:53;4.87;;;3.83;;
6860;SDS011;3469;47.060;15.460;2023-04-01T05:32:42;4.03;;;3.13;;
6860;SDS011;3469;47.060;15.460;2023-04-01T05:35:16;3.93;;;3.23;;
6860;SDS011;3469;47.060;15.460;2023-04-01T05:37:46;3.67;;;3.10;;
6860;SDS011;3469;47.060;15.460;2023-04-01T05:40:15;3.20;;;2.70;;
6860;SDS011;3469;47.060;15.460;2023-04-01T05:42:43;3.33;;;3.03;;
6860;SDS011;3469;47.060;15.460;2023-04-01T05:45:13;4.90;;;3.20;;
6860;SDS011;3469;47.060;15.460;2023-04-01T05:48:12;5.27;;;3.00;;
6860;SDS011;3469;47.060;15.460;2023-04-01T05:50:43;5.13;;;3.23;;
6860;SDS011;3469;47.060;15.460;2023-04-01T05:53:11;7.10;;;3.40;;
6860;SDS011;3469;47.060;15.460;2023-04-01T05:55:42;4.17;;;3.77;;
6860;SDS011;3469;47.060;15.460;2023-04-01T05:58:13;3.33;;;3.03;;
6860;SDS011;3469;47.060;15.460;2023-04-01T06:00:45;4.47;;;2.77;;
6860;SDS011;3469;47.060;15.460;2023-04-01T06:03:17;4.33;;;3.20;;
6860;SDS011;3469;47.060;15.460;2023-04-01T06:05:46;5.77;;;2.70;;
6860;SDS011;3469;47.060;15.460;2023-04-01T06:08:16;4.40;;;3.53;;
6860;SDS011;3469;47.060;15.460;2023-04-01T06:10:53;4.40;;;3.20;;
6860;SDS011;3469;47.060;15.460;2023-04-01T06:13:41;3.87;;;2.97;;
6860;SDS011;3469;47.060;15.460;2023-04-01T06:16:32;9.87;;;3.57;;
6860;SDS011;3469;47.060;15.460;2023-04-01T06:19:12;4.70;;;3.10;;
6860;SDS011;3469;47.060;15.460;2023-04-01T06:22:00;3.67;;;2.77;;
6860;SDS011;3469;47.060;15.460;2023-04-01T06:24:43;2.33;;;1.70;;
6860;SDS011;3469;47.060;15.460;2023-04-01T06:27:20;3.70;;;2.57;;
6860;SDS011;3469;47.060;15.460;2023-04-01T06:30:07;3.43;;;2.47;;
6860;SDS011;3469;47.060;15.460;2023-04-01T06:32:57;6.27;;;2.90;;
6860;SDS011;3469;47.060;15.460;2023-04-01T06:35:45;3.83;;;2.97;;
6860;SDS011;3469;47.060;15.460;2023-04-01T06:38:28;5.03;;;3.70;;
6860;SDS011;3469;47.060;15.460;2023-04-01T06:44:31;11.00;;;3.23;;
6860;SDS011;3469;47.060;15.460;2023-04-01T06:50:30;3.93;;;2.50;;
6860;SDS011;3469;47.060;15.460;2023-04-01T06:53:23;4.07;;;2.80;;
6860;SDS011;3469;47.060;15.460;2023-04-01T06:56:16;5.50;;;3.50;;
6860;SDS011;3469;47.060;15.460;2023-04-01T06:58:54;2.80;;;2.50;;
6860;SDS011;3469;47.060;15.460;2023-04-01T07:01:26;2.60;;;2.40;;
6860;SDS011;3469;47.060;15.460;2023-04-01T07:03:58;5.40;;;2.60;;
6860;SDS011;3469;47.060;15.460;2023-04-01T07:06:31;3.50;;;2.50;;
6860;SDS011;3469;47.060;15.460;2023-04-01T07:09:06;3.47;;;2.73;;
6860;SDS011;3469;47.060;15.460;2023-04-01T07:12:06;2.20;;;1.90;;
6860;SDS011;3469;47.060;15.460;2023-04-01T07:15:00;3.20;;;2.27;;
6860;SDS011;3469;47.060;15.460;2023-04-01T07:17:33;3.43;;;2.27;;
6860;SDS011;3469;47.060;15.460;2023-04-01T07:20:05;3.10;;;2.80;;
6860;SDS011;3469;47.060;15.460;2023-04-01T07:22:44;3.27;;;2.43;;
6860;SDS011;3469;47.060;15.460;2023-04-01T07:25:26;3.37;;;2.27;;
6860;SDS011;3469;47.060;15.460;2023-04-01T07:28:18;2.00;;;1.83;;
6860;SDS011;3469;47.060;15.460;2023-04-01T07:31:03;2.87;;;2.23;;
6860;SDS011;3469;47.060;15.460;2023-04-01T07:33:39;2.70;;;2.03;;
6860;SDS011;3469;47.060;15.460;2023-04-01T07:36:12;3.40;;;2.43;;
6860;SDS011;3469;47.060;15.460;2023-04-01T07:38:46;3.00;;;2.10;;
6860;SDS011;3469;47.060;15.460;2023-04-01T07:41:42;5.10;;;2.73;;
6860;SDS011;3469;47.060;15.460;2023-04-01T07:44:17;4.27;;;2.10;;
6860;SDS011;3469;47.060;15.460;2023-04-01T07:46:55;4.87;;;2.70;;
6860;SDS011;3469;47.060;15.460;2023-04-01T07:49:31;3.43;;;2.13;;
6860;SDS011;3469;47.060;15.460;2023-04-01T07:52:06;3.10;;;2.40;;
6860;SDS011;3469;47.060;15.460;2023-04-01T07:54:43;6.60;;;2.47;;
6860;SDS011;3469;47.060;15.460;2023-04-01T07:57:17;3.03;;;2.50;;
6860;SDS011;3469;47.060;15.460;2023-04-01T07:59:54;4.30;;;2.80;;
6860;SDS011;3469;47.060;15.460;2023-04-01T08:02:58;3.33;;;2.70;;
6860;SDS011;3469;47.060;15.460;2023-04-01T08:05:37;4.20;;;3.00;;
6860;SDS011;3469;47.060;15.460;2023-04-01T08:08:15;4.93;;;3.37;;
6860;SDS011;3469;47.060;15.460;2023-04-01T08:11:08;7.10;;;3.43;;
6860;SDS011;3469;47.060;15.460;2023-04-01T08:14:10;4.90;;;3.37;;
6860;SDS011;3469;47.060;15.460;2023-04-01T08:17:02;3.17;;;2.60;;
6860;SDS011;3469;47.060;15.460;2023-04-01T08:19:44;8.60;;;2.53;;
6860;SDS011;3469;47.060;15.460;2023-04-01T08:22:20;4.27;;;2.30;;
6860;SDS011;3469;47.060;15.460;2023-04-01T08:24:52;3.97;;;3.57;;
6860;SDS011;3469;47.060;15.460;2023-04-01T08:27:23;5.30;;;2.50;;
6860;SDS011;3469;47.060;15.460;2023-04-01T08:29:59;3.30;;;2.60;;
6860;SDS011;3469;47.060;15.460;2023-04-01T08:32:34;3.80;;;3.33;;
6860;SDS011;3469;47.060;15.460;2023-04-01T08:35:07;2.73;;;2.43;;
6860;SDS011;3469;47.060;15.460;2023-04-01T08:37:43;3.20;;;2.10;;
6860;SDS011;3469;47.060;15.460;2023-04-01T08:44:02;2.00;;;1.60;;
6860;SDS011;3469;47.060;15.460;2023-04-01T08:49:54;2.83;;;2.10;;
6860;SDS011;3469;47.060;15.460;2023-04-01T08:52:52;3.40;;;2.40;;
6860;SDS011;3469;47.060;15.460;2023-04-01T08:55:36;3.00;;;1.90;;
6860;SDS011;3469;47.060;15.460;2023-04-01T09:01:37;2.00;;;1.67;;
6860;SDS011;3469;47.060;15.460;2023-04-01T09:04:46;2.20;;;1.70;;
6860;SDS011;3469;47.060;15.460;2023-04-01T09:07:49;1.90;;;1.33;;
6860;SDS011;3469;47.060;15.460;2023-04-01T09:13:48;2.50;;;2.20;;
6860;SDS011;3469;47.060;15.460;2023-04-01T09:16:47;2.40;;;1.60;;
6860;SDS011;3469;47.060;15.460;2023-04-01T09:19:42;1.73;;;1.10;;
6860;SDS011;3469;47.060;15.460;2023-04-01T09:28:25;2.50;;;2.17;;
6860;SDS011;3469;47.060;15.460;2023-04-01T09:31:01;2.90;;;1.80;;
6860;SDS011;3469;47.060;15.460;2023-04-01T09:37:15;2.83;;;1.67;;
6860;SDS011;3469;47.060;15.460;2023-04-01T09:40:09;3.80;;;2.00;;
6860;SDS011;3469;47.060;15.460;2023-04-01T09:43:14;3.30;;;2.03;;
6860;SDS011;3469;47.060;15.460;2023-04-01T09:45:53;3.53;;;1.73;;
6860;SDS011;3469;47.060;15.460;2023-04-01T09:48:50;1.90;;;1.30;;
6860;SDS011;3469;47.060;15.460;2023-04-01T09:51:43;1.60;;;1.50;;
6860;SDS011;3469;47.060;15.460;2023-04-01T09:54:22;2.20;;;0.83;;
6860;SDS011;3469;47.060;15.460;2023-04-01T09:57:04;2.53;;;1.30;;
6860;SDS011;3469;47.060;15.460;2023-04-01T10:07:03;1.60;;;1.00;;
6860;SDS011;3469;47.060;15.460;2023-04-01T10:13:16;1.90;;;1.43;;
6860;SDS011;3469;47.060;15.460;2023-04-01T10:19:12;2.10;;;1.40;;
6860;SDS011;3469;47.060;15.460;2023-04-01T10:22:00;4.00;;;1.10;;
6860;SDS011;3469;47.060;15.460;2023-04-01T10:24:53;1.13;;;0.67;;
6860;SDS011;3469;47.060;15.460;2023-04-01T10:28:03;0.97;;;0.80;;
6860;SDS011;3469;47.060;15.460;2023-04-01T10:34:00;0.60;;;0.30;;
6860;SDS011;3469;47.060;15.460;2023-04-01T10:36:48;0.70;;;0.33;;
6860;SDS011;3469;47.060;15.460;2023-04-01T10:39:39;0.80;;;0.50;;
6860;SDS011;3469;47.060;15.460;2023-04-01T10:46:34;0.77;;;0.50;;
6860;SDS011;3469;47.060;15.460;2023-04-01T10:49:47;0.70;;;0.43;;
6860;SDS011;3469;47.060;15.460;2023-04-01T10:56:13;0.60;;;0.33;;
6860;SDS011;3469;47.060;15.460;2023-04-01T11:03:00;0.70;;;0.30;;
6860;SDS011;3469;47.060;15.460;2023-04-01T11:09:36;1.13;;;0.50;;
6860;SDS011;3469;47.060;15.460;2023-04-01T11:12:46;1.00;;;0.50;;
6860;SDS011;3469;47.060;15.460;2023-04-01T11:21:59;1.00;;;0.43;;
6860;SDS011;3469;47.060;15.460;2023-04-01T11:24:51;0.73;;;0.40;;
6860;SDS011;3469;47.060;15.460;2023-04-01T11:27:54;0.70;;;0.40;;
6860;SDS011;3469;47.060;15.460;2023-04-01T11:30:44;0.50;;;0.30;;
6860;SDS011;3469;47.060;15.460;2023-04-01T11:33:22;0.60;;;0.30;;
6860;SDS011;3469;47.060;15.460;2023-04-01T11:36:14;2.10;;;0.50;;
6860;SDS011;3469;47.060;15.460;2023-04-01T11:38:54;0.60;;;0.30;;
6860;SDS011;3469;47.060;15.460;2023-04-01T11:41:49;0.80;;;0.40;;
6860;SDS011;3469;47.060;15.460;2023-04-01T11:44:46;0.60;;;0.30;;
6860;SDS011;3469;47.060;15.460;2023-04-01T11:47:45;0.60;;;0.30;;
6860;SDS011;3469;47.060;15.460;2023-04-01T11:50:23;0.50;;;0.30;;
6860;SDS011;3469;47.060;15.460;2023-04-01T11:53:16;0.70;;;0.40;;
6860;SDS011;3469;47.060;15.460;2023-04-01T11:55:56;0.60;;;0.33;;
6860;SDS011;3469;47.060;15.460;2023-04-01T12:07:41;1.37;;;0.30;;
6860;SDS011;3469;47.060;15.460;2023-04-01T12:10:21;1.10;;;0.50;;
6860;SDS011;3469;47.060;15.460;2023-04-01T12:12:54;0.77;;;0.40;;
6860;SDS011;3469;47.060;15.460;2023-04-01T12:15:29;3.03;;;0.50;;
6860;SDS011;3469;47.060;15.460;2023-04-01T12:18:10;0.80;;;0.50;;
6860;SDS011;3469;47.060;15.460;2023-04-01T12:20:47;0.63;;;0.40;;
6860;SDS011;3469;47.060;15.460;2023-04-01T12:23:22;0.50;;;0.20;;
6860;SDS011;3469;47.060;15.460;2023-04-01T12:26:10;0.50;;;0.30;;
6860;SDS011;3469;47.060;15.460;2023-04-01T12:28:48;0.70;;;0.40;;
6860;SDS011;3469;47.060;15.460;2023-04-01T12:31:28;1.90;;;0.80;;
6860;SDS011;3469;47.060;15.460;2023-04-01T12:34:16;13.73;;;5.43;;
6860;SDS011;3469;47.060;15.460;2023-04-01T12:36:58;3.20;;;0.73;;
6860;SDS011;3469;47.060;15.460;2023-04-01T12:39:47;1.47;;;0.70;;
6860;SDS011;3469;47.060;15.460;2023-04-01T12:42:31;0.80;;;0.40;;
6860;SDS011;3469;47.060;15.460;2023-04-01T12:45:18;0.80;;;0.43;;
6860;SDS011;3469;47.060;15.460;2023-04-01T12:51:10;1.27;;;0.97;;
6860;SDS011;3469;47.060;15.460;2023-04-01T12:54:01;0.67;;;0.43;;
6860;SDS011;3469;47.060;15.460;2023-04-01T12:56:57;2.43;;;2.10;;
6860;SDS011;3469;47.060;15.460;2023-04-01T12:59:38;1.23;;;1.13;;
6860;SDS011;3469;47.060;15.460;2023-04-01T13:02:18;1.33;;;0.83;;
6860;SDS011;3469;47.060;15.460;2023-04-01T13:08:16;1.97;;;1.43;;
6860;SDS011;3469;47.060;15.460;2023-04-01T13:10:55;0.73;;;0.50;;
6860;SDS011;3469;47.060;15.460;2023-04-01T13:13:34;2.30;;;0.50;;
6860;SDS011;3469;47.060;15.460;2023-04-01T13:16:21;2.27;;;0.83;;
6860;SDS011;3469;47.060;15.460;2023-04-01T13:21:43;13.33;;;11.70;;
6860;SDS011;3469;47.060;15.460;2023-04-01T13:24:23;9.60;;;7.97;;
6860;SDS011;3469;47.060;15.460;2023-04-01T13:26:58;8.17;;;7.03;;
6860;SDS011;3469;47.060;15.460;2023-04-01T13:29:31;2.33;;;1.60;;
6860;SDS011;3469;47.060;15.460;2023-04-01T13:32:04;3.00;;;1.47;;
6860;SDS011;3469;47.060;15.460;2023-04-01T13:34:42;1.87;;;1.63;;
6860;SDS011;3469;47.060;15.460;2023-04-01T13:37:23;1.33;;;0.90;;
6860;SDS011;3469;47.060;15.460;2023-04-01T13:39:57;1.77;;;1.47;;
6860;SDS011;3469;47.060;15.460;2023-04-01T13:42:33;1.73;;;0.80;;
6860;SDS011;3469;47.060;15.460;2023-04-01T13:45:10;5.87;;;3.37;;
6860;SDS011;3469;47.060;15.460;2023-04-01T13:47:47;5.10;;;2.90;;
6860;SDS011;3469;47.060;15.460;2023-04-01T13:50:47;1.80;;;1.20;;
6860;SDS011;3469;47.060;15.460;2023-04-01T13:53:47;0.60;;;0.30;;
6860;SDS011;3469;47.060;15.460;2023-04-01T13:56:37;0.60;;;0.30;;
6860;SDS011;3469;47.060;15.460;2023-04-01T13:59:14;0.60;;;0.30;;
6860;SDS011;3469;47.060;15.460;2023-04-01T14:01:53;0.73;;;0.50;;
6860;SDS011;3469;47.060;15.460;2023-04-01T14:04:47;0.70;;;0.40;;
6860;SDS011;3469;47.060;15.460;2023-04-01T14:07:29;0.70;;;0.37;;
6860;SDS011;3469;47.060;15.460;2023-04-01T14:10:11;0.70;;;0.30;;
6860;SDS011;3469;47.060;15.460;2023-04-01T14:12:47;0.83;;;0.67;;
6860;SDS011;3469;47.060;15.460;2023-04-01T14:18:27;1.47;;;1.13;;
6860;SDS011;3469;47.060;15.460;2023-04-01T14:21:07;0.90;;;0.60;;
6860;SDS011;3469;47.060;15.460;2023-04-01T14:27:01;1.40;;;0.80;;
6860;SDS011;3469;47.060;15.460;2023-04-01T14:29:58;0.90;;;0.40;;
6860;SDS011;3469;47.060;15.460;2023-04-01T14:32:40;0.80;;;0.40;;
6860;SDS011;3469;47.060;15.460;2023-04-01T14:35:21;0.83;;;0.47;;
6860;SDS011;3469;47.060;15.460;2023-04-01T14:38:02;1.43;;;0.60;;
6860;SDS011;3469;47.060;15.460;2023-04-01T14:40:42;1.63;;;0.70;;
6860;SDS011;3469;47.060;15.460;2023-04-01T14:43:23;2.17;;;1.00;;
6860;SDS011;3469;47.060;15.460;2023-04-01T14:46:13;0.60;;;0.30;;
6860;SDS011;3469;47.060;15.460;2023-04-01T14:48:49;0.70;;;0.40;;
6860;SDS011;3469;47.060;15.460;2023-04-01T14:51:21;0.70;;;0.40;;
6860;SDS011;3469;47.060;15.460;2023-04-01T14:53:53;0.60;;;0.30;;
6860;SDS011;3469;47.060;15.460;2023-04-01T14:56:42;0.70;;;0.47;;
6860;SDS011;3469;47.060;15.460;2023-04-01T14:59:17;1.03;;;0.50;;
6860;SDS011;3469;47.060;15.460;2023-04-01T15:01:57;0.70;;;0.50;;
6860;SDS011;3469;47.060;15.460;2023-04-01T15:07:21;0.60;;;0.40;;
6860;SDS011;3469;47.060;15.460;2023-04-01T15:10:12;0.70;;;0.40;;
6860;SDS011;3469;47.060;15.460;2023-04-01T15:12:55;0.80;;;0.30;;
6860;SDS011;3469;47.060;15.460;2023-04-01T15:15:31;0.70;;;0.40;;
6860;SDS011;3469;47.060;15.460;2023-04-01T15:18:08;0.60;;;0.30;;
6860;SDS011;3469;47.060;15.460;2023-04-01T15:20:56;0.70;;;0.40;;
6860;SDS011;3469;47.060;15.460;2023-04-01T15:23:38;0.57;;;0.30;;
6860;SDS011;3469;47.060;15.460;2023-04-01T15:26:18;0.90;;;0.40;;
6860;SDS011;3469;47.060;15.460;2023-04-01T15:29:20;0.60;;;0.30;;
6860;SDS011;3469;47.060;15.460;2023-04-01T15:32:10;0.70;;;0.40;;
6860;SDS011;3469;47.060;15.460;2023-04-01T15:34:45;0.63;;;0.40;;
6860;SDS011;3469;47.060;15.460;2023-04-01T15:37:22;0.50;;;0.30;;
6860;SDS011;3469;47.060;15.460;2023-04-01T15:40:02;0.63;;;0.30;;
6860;SDS011;3469;47.060;15.460;2023-04-01T15:42:43;0.60;;;0.30;;
6860;SDS011;3469;47.060;15.460;2023-04-01T15:45:39;0.80;;;0.40;;
6860;SDS011;3469;47.060;15.460;2023-04-01T15:48:19;0.60;;;0.30;;
6860;SDS011;3469;47.060;15.460;2023-04-01T15:50:54;0.70;;;0.30;;
6860;SDS011;3469;47.060;15.460;2023-04-01T15:53:37;0.80;;;0.37;;
6860;SDS011;3469;47.060;15.460;2023-04-01T15:56:30;0.90;;;0.40;;
6860;SDS011;3469;47.060;15.460;2023-04-01T16:02:07;0.60;;;0.40;;
6860;SDS011;3469;47.060;15.460;2023-04-01T16:04:49;0.70;;;0.40;;
6860;SDS011;3469;47.060;15.460;2023-04-01T16:10:30;0.67;;;0.40;;
6860;SDS011;3469;47.060;15.460;2023-04-01T16:13:16;0.60;;;0.30;;
6860;SDS011;3469;47.060;15.460;2023-04-01T16:15:59;1.00;;;0.40;;
6860;SDS011;3469;47.060;15.460;2023-04-01T16:18:47;0.70;;;0.30;;
6860;SDS011;3469;47.060;15.460;2023-04-01T16:21:53;1.83;;;0.90;;
6860;SDS011;3469;47.060;15.460;2023-04-01T16:24:30;0.83;;;0.37;;
6860;SDS011;3469;47.060;15.460;2023-04-01T16:27:08;3.23;;;0.60;;
6860;SDS011;3469;47.060;15.460;2023-04-01T16:29:48;1.20;;;0.70;;
6860;SDS011;3469;47.060;15.460;2023-04-01T16:32:34;0.90;;;0.77;;
6860;SDS011;3469;47.060;15.460;2023-04-01T16:35:21;1.87;;;0.70;;
6860;SDS011;3469;47.060;15.460;2023-04-01T16:38:03;1.10;;;0.70;;
6860;SDS011;3469;47.060;15.460;2023-04-01T16:40:47;1.63;;;0.70;;
6860;SDS011;3469;47.060;15.460;2023-04-01T16:47:54;1.00;;;0.50;;
6860;SDS011;3469;47.060;15.460;2023-04-01T16:50:44;1.63;;;0.90;;
6860;SDS011;3469;47.060;15.460;2023-04-01T16:53:25;1.40;;;0.90;;
6860;SDS011;3469;47.060;15.460;2023-04-01T16:56:07;1.93;;;1.13;;
6860;SDS011;3469;47.060;15.460;2023-04-01T16:58:41;1.30;;;0.87;;
6860;SDS011;3469;47.060;15.460;2023-04-01T17:01:16;1.10;;;0.90;;
6860;SDS011;3469;47.060;15.460;2023-04-01T17:04:06;1.13;;;0.73;;
6860;SDS011;3469;47.060;15.460;2023-04-01T17:06:43;1.43;;;0.93;;
6860;SDS011;3469;47.060;15.460;2023-04-01T17:09:20;2.13;;;1.13;;
6860;SDS011;3469;47.060;15.460;2023-04-01T17:12:00;1.33;;;0.80;;
6860;SDS011;3469;47.060;15.460;2023-04-01T17:14:40;1.67;;;1.10;;
6860;SDS011;3469;47.060;15.460;2023-04-01T17:17:28;1.70;;;0.70;;
6860;SDS011;3469;47.060;15.460;2023-04-01T17:20:04;1.43;;;0.80;;
6860;SDS011;3469;47.060;15.460;2023-04-01T17:22:52;0.83;;;0.50;;
6860;SDS011;3469;47.060;15.460;2023-04-01T17:25:30;2.80;;;0.73;;
6860;SDS011;3469;47.060;15.460;2023-04-01T17:28:20;1.17;;;0.80;;
6860;SDS011;3469;47.060;15.460;2023-04-01T17:30:58;1.23;;;0.70;;
6860;SDS011;3469;47.060;15.460;2023-04-01T17:33:46;2.40;;;1.37;;
6860;SDS011;3469;47.060;15.460;2023-04-01T17:36:36;2.60;;;1.70;;
6860;SDS011;3469;47.060;15.460;2023-04-01T17:39:20;5.10;;;2.60;;
6860;SDS011;3469;47.060;15.460;2023-04-01T17:42:04;2.03;;;1.20;;
6860;SDS011;3469;47.060;15.460;2023-04-01T17:44:44;1.80;;;1.13;;
6860;SDS011;3469;47.060;15.460;2023-04-01T17:47:29;1.70;;;1.27;;
6860;SDS011;3469;47.060;15.460;2023-04-01T17:50:09;1.50;;;1.03;;
6860;SDS011;3469;47.060;15.460;2023-04-01T17:52:52;2.00;;;1.33;;
6860;SDS011;3469;47.060;15.460;2023-04-01T17:55:43;1.40;;;0.90;;
6860;SDS011;3469;47.060;15.460;2023-04-01T17:58:19;1.43;;;0.93;;